createdAt,value
2023-01-22T00:01:25.293Z,59.02
2023-01-22T00:03:54.871Z,58.74
2023-01-22T00:06:23.926Z,58.88
2023-01-22T00:08:52.923Z,58.56
2023-01-22T00:11:21.518Z,58.35
2023-01-22T00:13:49.849Z,58.10
2023-01-22T00:16:20.395Z,58.76
2023-01-22T00:18:48.699Z,58.52
2023-01-22T00:21:16.939Z,58.97
2023-01-22T00:23:45.077Z,59.14
2023-01-22T00:26:15.553Z,58.82
2023-01-22T00:28:45.474Z,58.85
2023-01-22T00:31:15.802Z,59.16
2023-01-22T00:33:46.855Z,59.35
2023-01-22T00:36:17.061Z,58.71
2023-01-22T00:38:45.649Z,59.02
2023-01-22T00:41:14.720Z,58.90
2023-01-22T00:43:43.679Z,59.15
2023-01-22T00:46:14.665Z,59.16
2023-01-22T00:48:45.358Z,58.22
2023-01-22T00:51:15.817Z,59.07
2023-01-22T00:53:44.942Z,59.31
2023-01-22T00:56:14.695Z,58.69
2023-01-22T00:58:43.123Z,58.94
2023-01-22T01:01:11.526Z,58.63
2023-01-22T01:03:39.844Z,58.67
2023-01-22T01:06:09.721Z,59.38
2023-01-22T01:08:42.425Z,59.10
2023-01-22T01:11:15.031Z,59.09
2023-01-22T01:13:44.408Z,58.88
2023-01-22T01:16:15.781Z,58.32
2023-01-22T01:18:44.965Z,59.01
2023-01-22T01:21:13.605Z,58.98
2023-01-22T01:23:43.988Z,58.61
2023-01-22T01:26:14.360Z,58.97
2023-01-22T01:28:43.428Z,58.88
2023-01-22T01:31:14.026Z,59.09
2023-01-22T01:33:42.768Z,58.61
2023-01-22T01:36:13.532Z,59.28
2023-01-22T01:38:44.012Z,59.58
2023-01-22T01:41:14.607Z,58.51
2023-01-22T01:43:43.807Z,58.40
2023-01-22T01:46:20.833Z,58.69
2023-01-22T01:48:52.890Z,58.73
2023-01-22T01:51:27.159Z,58.52
2023-01-22T01:53:59.599Z,59.00
2023-01-22T01:56:31.554Z,58.24
2023-01-22T01:59:03.982Z,58.70
2023-01-22T02:01:33.205Z,58.92
2023-01-22T02:04:02.338Z,58.57
2023-01-22T02:06:30.466Z,59.21
2023-01-22T02:09:00.644Z,58.87
2023-01-22T02:11:30.679Z,59.30
2023-01-22T02:14:03.048Z,59.10
2023-01-22T02:16:31.228Z,59.09
2023-01-22T02:18:59.567Z,59.04
2023-01-22T02:21:38.360Z,59.23
2023-01-22T02:24:08.747Z,59.27
2023-01-22T02:26:37.550Z,59.36
2023-01-22T02:29:08.070Z,59.24
2023-01-22T02:31:37.307Z,59.20
2023-01-22T02:34:06.092Z,59.47
2023-01-22T02:36:38.297Z,60.01
2023-01-22T02:39:06.638Z,63.52
2023-01-22T02:41:35.035Z,60.06
2023-01-22T02:44:03.238Z,59.83
2023-01-22T02:46:31.456Z,59.59
2023-01-22T02:48:59.668Z,59.44
2023-01-22T02:51:27.897Z,59.34
2023-01-22T02:53:57.694Z,59.77
2023-01-22T02:56:25.876Z,59.86
2023-01-22T02:58:54.022Z,59.97
2023-01-22T03:01:25.295Z,60.40
2023-01-22T03:03:55.564Z,62.85
2023-01-22T03:06:25.783Z,65.38
2023-01-22T03:08:55.875Z,65.30
2023-01-22T03:11:27.233Z,67.90
2023-01-22T03:14:13.187Z,69.95
2023-01-22T03:17:01.068Z,71.35
2023-01-22T03:19:46.836Z,67.13
2023-01-22T03:22:15.886Z,67.13
2023-01-22T03:24:44.393Z,66.32
2023-01-22T03:27:14.024Z,65.60
2023-01-22T03:29:42.248Z,62.42
2023-01-22T03:32:10.428Z,62.59
2023-01-22T03:34:38.783Z,61.44
2023-01-22T03:37:07.760Z,61.31
2023-01-22T03:39:36.043Z,61.28
2023-01-22T03:42:04.206Z,62.25
2023-01-22T03:44:33.967Z,60.29
2023-01-22T03:47:02.191Z,60.82
2023-01-22T03:49:30.482Z,60.58
2023-01-22T03:51:58.712Z,60.86
2023-01-22T03:54:26.913Z,60.78
2023-01-22T03:56:55.075Z,61.38
2023-01-22T03:59:23.427Z,60.88
2023-01-22T04:01:53.885Z,60.81
2023-01-22T04:04:22.311Z,61.07
2023-01-22T04:06:50.682Z,61.01
2023-01-22T04:09:19.064Z,61.33
2023-01-22T04:11:47.220Z,60.96
2023-01-22T04:14:15.525Z,61.19
2023-01-22T04:16:43.882Z,60.95
2023-01-22T04:19:14.763Z,60.99
2023-01-22T04:21:43.059Z,61.29
2023-01-22T04:24:11.320Z,61.13
2023-01-22T04:26:39.568Z,61.51
2023-01-22T04:29:07.741Z,61.45
2023-01-22T04:31:36.122Z,61.44
2023-01-22T04:34:04.398Z,61.98
2023-01-22T04:36:34.017Z,61.93
2023-01-22T04:39:02.270Z,61.76
2023-01-22T04:41:30.422Z,62.04
2023-01-22T04:43:58.609Z,62.25
2023-01-22T04:46:26.893Z,62.74
2023-01-22T04:48:55.104Z,63.44
2023-01-22T04:51:23.235Z,63.85
2023-01-22T04:53:52.875Z,63.82
2023-01-22T04:56:21.106Z,64.65
2023-01-22T04:58:49.809Z,65.15
2023-01-22T05:01:18.045Z,65.60
2023-01-22T05:03:46.305Z,65.36
2023-01-22T05:06:14.638Z,65.87
2023-01-22T05:08:42.796Z,65.93
2023-01-22T05:11:12.511Z,66.51
2023-01-22T05:13:40.724Z,66.76
2023-01-22T05:16:09.264Z,66.93
2023-01-22T05:18:37.533Z,67.64
2023-01-22T05:21:05.785Z,67.32
2023-01-22T05:23:34.024Z,67.63
2023-01-22T05:26:02.218Z,67.36
2023-01-22T05:28:31.824Z,67.27
2023-01-22T05:31:00.073Z,67.22
2023-01-22T05:33:30.310Z,67.47
2023-01-22T05:35:58.743Z,67.47
2023-01-22T05:38:27.004Z,66.68
2023-01-22T05:40:55.179Z,67.22
2023-01-22T05:43:23.681Z,67.13
2023-01-22T05:45:53.325Z,67.12
2023-01-22T05:48:21.477Z,66.74
2023-01-22T05:50:49.699Z,67.78
2023-01-22T05:53:17.889Z,66.76
2023-01-22T05:55:46.026Z,66.54
2023-01-22T05:58:14.185Z,66.62
2023-01-22T06:00:42.355Z,67.29
2023-01-22T06:03:12.089Z,67.05
2023-01-22T06:05:40.292Z,67.02
2023-01-22T06:08:08.406Z,66.82
2023-01-22T06:10:36.904Z,67.28
2023-01-22T06:13:05.165Z,67.16
2023-01-22T06:15:33.433Z,66.88
2023-01-22T06:18:02.071Z,66.92
2023-01-22T06:20:31.666Z,66.78
2023-01-22T06:22:59.786Z,66.95
2023-01-22T06:25:28.063Z,66.56
2023-01-22T06:27:56.181Z,66.49
2023-01-22T06:30:24.430Z,66.82
2023-01-22T06:32:53.896Z,66.28
2023-01-22T06:35:22.358Z,66.27
2023-01-22T06:37:53.034Z,66.13
2023-01-22T06:40:21.536Z,66.33
2023-01-22T06:42:49.707Z,66.14
2023-01-22T06:45:17.985Z,66.50
2023-01-22T06:47:46.584Z,66.30
2023-01-22T06:50:15.360Z,65.96
2023-01-22T06:52:43.676Z,66.88
2023-01-22T06:55:13.403Z,66.88
2023-01-22T06:57:41.611Z,67.28
2023-01-22T07:00:11.522Z,67.99
2023-01-22T07:02:41.159Z,68.19
2023-01-22T07:05:10.173Z,68.41
2023-01-22T07:07:38.363Z,68.85
2023-01-22T07:10:07.212Z,68.88
2023-01-22T07:12:37.392Z,69.66
2023-01-22T07:15:08.050Z,70.91
2023-01-22T07:17:37.636Z,72.01
2023-01-22T07:20:06.523Z,73.07
2023-01-22T07:22:34.801Z,74.65
2023-01-22T07:25:03.050Z,75.99
2023-01-22T07:27:32.613Z,77.00
2023-01-22T07:30:02.384Z,77.49
2023-01-22T07:32:30.612Z,78.83
2023-01-22T07:34:58.850Z,79.29
2023-01-22T07:37:26.989Z,79.14
2023-01-22T07:39:55.301Z,79.22
2023-01-22T07:42:23.957Z,79.26
2023-01-22T07:44:52.278Z,79.24
2023-01-22T07:47:22.033Z,79.80
2023-01-22T07:49:50.183Z,79.99
2023-01-22T07:52:18.298Z,79.97
2023-01-22T07:54:46.484Z,79.85
2023-01-22T07:57:15.645Z,79.09
2023-01-22T07:59:44.058Z,79.55
2023-01-22T08:02:15.328Z,79.58
2023-01-22T08:04:45.130Z,79.40
2023-01-22T08:07:18.072Z,79.55
2023-01-22T08:09:46.372Z,80.39
2023-01-22T08:12:14.661Z,82.16
2023-01-22T08:14:42.854Z,84.28
2023-01-22T08:17:11.071Z,86.32
2023-01-22T08:19:39.278Z,88.38
2023-01-22T08:22:08.836Z,89.38
2023-01-22T08:24:37.050Z,89.73
2023-01-22T08:27:05.475Z,90.65
2023-01-22T08:29:33.758Z,91.05
2023-01-22T08:32:02.038Z,90.84
2023-01-22T08:34:30.356Z,90.01
2023-01-22T08:36:58.564Z,90.84
2023-01-22T08:39:28.161Z,92.24
2023-01-22T08:41:57.824Z,93.19
2023-01-22T08:44:26.490Z,94.62
2023-01-22T08:46:54.764Z,95.80
2023-01-22T08:49:23.149Z,98.56
2023-01-22T08:51:51.614Z,100.00
2023-01-22T08:54:20.033Z,100.00
2023-01-22T08:56:50.122Z,100.00
2023-01-22T08:59:18.257Z,100.00
2023-01-22T09:01:46.475Z,100.00
2023-01-22T09:04:14.798Z,100.00
2023-01-22T09:06:42.996Z,100.00
2023-01-22T09:09:11.156Z,100.00
2023-01-22T09:11:39.884Z,100.00
2023-01-22T09:14:10.191Z,100.00
2023-01-22T09:16:38.582Z,100.00
2023-01-22T09:19:07.761Z,100.00
2023-01-22T09:21:37.537Z,100.00
2023-01-22T09:24:06.239Z,100.00
2023-01-22T09:26:34.747Z,100.00
2023-01-22T09:29:06.036Z,100.00
2023-01-22T09:31:36.851Z,100.00
2023-01-22T09:34:05.361Z,100.00
2023-01-22T09:36:33.690Z,100.00
2023-01-22T09:39:01.847Z,100.00
2023-01-22T09:41:34.334Z,100.00
2023-01-22T09:44:06.209Z,100.00
2023-01-22T09:46:40.901Z,100.00
2023-01-22T09:49:16.690Z,100.00
2023-01-22T09:51:46.748Z,100.00
2023-01-22T09:54:16.328Z,100.00
2023-01-22T09:56:47.208Z,100.00
2023-01-22T09:59:18.539Z,100.00
2023-01-22T10:01:53.848Z,100.00
2023-01-22T10:04:34.794Z,100.00
2023-01-22T10:07:05.912Z,100.00
2023-01-22T10:09:35.905Z,100.00
2023-01-22T10:12:13.533Z,100.00
2023-01-22T10:14:43.986Z,100.00
2023-01-22T10:17:20.717Z,100.00
2023-01-22T10:19:53.513Z,100.00
2023-01-22T10:22:23.686Z,100.00
2023-01-22T10:24:52.716Z,100.00
2023-01-22T10:27:23.775Z,100.00
2023-01-22T10:30:01.124Z,100.00
2023-01-22T10:32:32.160Z,100.00
2023-01-22T10:35:02.917Z,100.00
2023-01-22T10:37:31.582Z,100.00
2023-01-22T10:40:01.125Z,100.00
2023-01-22T10:42:30.819Z,100.00
2023-01-22T10:45:10.297Z,100.00
2023-01-22T10:47:40.071Z,100.00
2023-01-22T10:50:36.618Z,100.00
2023-01-22T10:53:06.716Z,100.00
2023-01-22T10:55:40.663Z,100.00
2023-01-22T10:58:17.595Z,100.00
2023-01-22T11:00:56.430Z,100.00
2023-01-22T11:03:32.368Z,100.00
2023-01-22T11:06:05.835Z,100.00
2023-01-22T11:08:44.568Z,100.00
2023-01-22T11:11:16.346Z,100.00
2023-01-22T11:13:59.384Z,100.00
2023-01-22T11:16:28.501Z,100.00
2023-01-22T11:19:01.088Z,100.00
2023-01-22T11:21:33.576Z,100.00
2023-01-22T11:24:06.389Z,100.00
2023-01-22T11:26:54.815Z,100.00
2023-01-22T11:29:37.514Z,100.00
2023-01-22T11:32:35.027Z,100.00
2023-01-22T11:35:15.567Z,100.00
2023-01-22T11:37:58.621Z,100.00
2023-01-22T11:40:30.867Z,100.00
2023-01-22T11:43:19.362Z,100.00
2023-01-22T11:46:01.013Z,100.00
2023-01-22T11:48:43.184Z,100.00
2023-01-22T11:51:24.799Z,100.00
2023-01-22T11:54:19.382Z,100.00
2023-01-22T11:56:56.778Z,100.00
2023-01-22T11:59:37.030Z,100.00
2023-01-22T12:02:36.201Z,100.00
2023-01-22T12:05:14.562Z,100.00
2023-01-22T12:07:58.039Z,100.00
2023-01-22T12:10:50.160Z,100.00
2023-01-22T12:13:33.984Z,100.00
2023-01-22T12:16:08.479Z,100.00
2023-01-22T12:19:07.707Z,100.00
2023-01-22T12:21:53.772Z,100.00
2023-01-22T12:24:29.356Z,100.00
2023-01-22T12:27:01.482Z,100.00
2023-01-22T12:29:34.869Z,100.00
2023-01-22T12:32:10.843Z,100.00
2023-01-22T12:34:48.162Z,100.00
2023-01-22T12:37:20.352Z,100.00
2023-01-22T12:40:02.913Z,100.00
2023-01-22T12:42:37.115Z,100.00
2023-01-22T12:45:22.264Z,100.00
2023-01-22T12:47:58.340Z,100.00
2023-01-22T12:50:27.970Z,100.00
2023-01-22T12:53:00.732Z,100.00
2023-01-22T12:55:37.296Z,100.00
2023-01-22T12:58:06.559Z,100.00
2023-01-22T13:00:37.010Z,100.00
2023-01-22T13:03:30.963Z,100.00
2023-01-22T13:06:01.180Z,100.00
2023-01-22T13:08:38.346Z,100.00
2023-01-22T13:11:10.619Z,100.00
2023-01-22T13:13:47.103Z,100.00
2023-01-22T13:16:22.051Z,100.00
2023-01-22T13:18:52.392Z,100.00
2023-01-22T13:21:27.309Z,100.00
2023-01-22T13:24:00.538Z,100.00
2023-01-22T13:26:31.919Z,100.00
2023-01-22T13:29:02.728Z,100.00
2023-01-22T13:31:33.185Z,100.00
2023-01-22T13:34:08.830Z,100.00
2023-01-22T13:36:39.970Z,100.00
2023-01-22T13:39:08.185Z,100.00
2023-01-22T13:41:40.987Z,100.00
2023-01-22T13:44:17.695Z,100.00
2023-01-22T13:46:46.047Z,100.00
2023-01-22T13:49:21.254Z,100.00
2023-01-22T13:51:50.347Z,100.00
2023-01-22T13:54:25.944Z,100.00
2023-01-22T13:56:55.612Z,100.00
2023-01-22T13:59:25.614Z,100.00
2023-01-22T14:01:54.004Z,100.00
2023-01-22T14:04:34.565Z,100.00
2023-01-22T14:07:02.952Z,100.00
2023-01-22T14:09:33.682Z,100.00
2023-01-22T14:12:15.459Z,100.00
2023-01-22T14:14:44.664Z,100.00
2023-01-22T14:17:27.052Z,100.00
2023-01-22T14:19:55.360Z,100.00
2023-01-22T14:22:24.085Z,100.00
2023-01-22T14:24:53.165Z,100.00
2023-01-22T14:27:23.979Z,100.00
2023-01-22T14:29:53.580Z,100.00
2023-01-22T14:32:23.604Z,100.00
2023-01-22T14:34:51.890Z,100.00
2023-01-22T14:37:21.223Z,100.00
2023-01-22T14:39:49.440Z,100.00
2023-01-22T14:42:17.683Z,100.00
2023-01-22T14:44:47.366Z,100.00
2023-01-22T14:47:15.605Z,100.00
2023-01-22T14:49:43.832Z,100.00
2023-01-22T14:52:11.965Z,100.00
2023-01-22T14:54:40.306Z,100.00
2023-01-22T14:57:08.464Z,100.00
2023-01-22T14:59:36.691Z,100.00
2023-01-22T15:02:06.366Z,100.00
2023-01-22T15:04:34.566Z,100.00
2023-01-22T15:07:02.839Z,100.00
2023-01-22T15:09:31.223Z,100.00
2023-01-22T15:11:59.527Z,100.00
2023-01-22T15:14:27.923Z,100.00
2023-01-22T15:16:56.222Z,100.00
2023-01-22T15:19:25.877Z,100.00
2023-01-22T15:21:54.243Z,100.00
2023-01-22T15:24:22.504Z,100.00
2023-01-22T15:26:50.748Z,100.00
2023-01-22T15:29:18.946Z,100.00
2023-01-22T15:31:47.268Z,100.00
2023-01-22T15:34:15.560Z,100.00
2023-01-22T15:36:45.278Z,100.00
2023-01-22T15:39:13.515Z,100.00
2023-01-22T15:41:42.095Z,100.00
2023-01-22T15:44:13.667Z,100.00
2023-01-22T15:46:47.939Z,100.00
2023-01-22T15:49:18.274Z,100.00
2023-01-22T15:51:47.932Z,100.00
2023-01-22T15:54:17.573Z,100.00
2023-01-22T15:56:46.194Z,100.00
2023-01-22T15:59:14.917Z,100.00
2023-01-22T16:01:43.440Z,100.00
2023-01-22T16:04:11.812Z,100.00
2023-01-22T16:06:40.040Z,100.00
2023-01-22T16:09:10.039Z,100.00
2023-01-22T16:11:38.390Z,100.00
2023-01-22T16:14:06.726Z,100.00
2023-01-22T16:16:37.961Z,100.00
2023-01-22T16:19:08.556Z,100.00
2023-01-22T16:21:36.943Z,100.00
2023-01-22T16:24:05.737Z,100.00
2023-01-22T16:26:36.653Z,100.00
2023-01-22T16:29:06.747Z,100.00
2023-01-22T16:31:37.066Z,100.00
2023-01-22T16:34:10.185Z,100.00
2023-01-22T16:36:38.839Z,100.00
2023-01-22T16:39:07.727Z,100.00
2023-01-22T16:41:38.806Z,100.00
2023-01-22T16:44:09.683Z,100.00
2023-01-22T16:46:40.176Z,100.00
2023-01-22T16:49:11.646Z,100.00
2023-01-22T16:51:44.615Z,100.00
2023-01-22T16:54:20.188Z,100.00
2023-01-22T16:56:50.417Z,100.00
2023-01-22T16:59:18.668Z,100.00
2023-01-22T17:01:47.113Z,100.00
2023-01-22T17:04:15.625Z,100.00
2023-01-22T17:06:45.789Z,100.00
2023-01-22T17:09:16.343Z,100.00
2023-01-22T17:11:47.026Z,100.00
2023-01-22T17:14:19.788Z,100.00
2023-01-22T17:16:48.258Z,100.00
2023-01-22T17:19:16.666Z,100.00
2023-01-22T17:21:45.109Z,100.00
2023-01-22T17:24:14.557Z,100.00
2023-01-22T17:26:43.349Z,100.00
2023-01-22T17:29:11.984Z,100.00
2023-01-22T17:31:41.690Z,100.00
2023-01-22T17:34:11.177Z,100.00
2023-01-22T17:36:39.924Z,100.00
2023-01-22T17:39:09.111Z,100.00
2023-01-22T17:41:37.315Z,100.00
2023-01-22T17:44:05.786Z,100.00
2023-01-22T17:46:35.808Z,100.00
2023-01-22T17:49:06.259Z,100.00
2023-01-22T17:51:36.108Z,100.00
2023-01-22T17:54:06.317Z,100.00
2023-01-22T17:56:36.617Z,100.00
2023-01-22T17:59:07.079Z,100.00
2023-01-22T18:01:38.952Z,100.00
2023-01-22T18:04:10.494Z,100.00
2023-01-22T18:06:39.704Z,100.00
2023-01-22T18:09:09.056Z,100.00
2023-01-22T18:11:38.712Z,100.00
2023-01-22T18:14:08.983Z,100.00
2023-01-22T18:16:39.347Z,100.00
2023-01-22T18:19:08.983Z,100.00
2023-01-22T18:21:38.946Z,100.00
2023-01-22T18:24:08.916Z,100.00
2023-01-22T18:26:37.257Z,100.00
2023-01-22T18:29:06.411Z,100.00
2023-01-22T18:31:34.919Z,100.00
2023-01-22T18:34:05.371Z,100.00
2023-01-22T18:36:37.387Z,100.00
2023-01-22T18:39:08.708Z,100.00
2023-01-22T18:41:37.677Z,100.00
2023-01-22T18:44:06.210Z,100.00
2023-01-22T18:46:36.979Z,100.00
2023-01-22T18:49:08.178Z,100.00
2023-01-22T18:51:37.959Z,100.00
2023-01-22T18:54:06.519Z,100.00
2023-01-22T18:56:35.059Z,100.00
2023-01-22T18:59:03.276Z,100.00
2023-01-22T19:01:33.544Z,100.00
2023-01-22T19:04:04.359Z,100.00
2023-01-22T19:06:37.000Z,100.00
2023-01-22T19:09:08.378Z,100.00
2023-01-22T19:11:38.673Z,100.00
2023-01-22T19:14:09.302Z,100.00
2023-01-22T19:16:38.667Z,100.00
2023-01-22T19:19:11.632Z,100.00
2023-01-22T19:21:41.494Z,100.00
2023-01-22T19:24:11.870Z,100.00
2023-01-22T19:26:40.064Z,100.00
2023-01-22T19:29:10.010Z,100.00
2023-01-22T19:31:40.260Z,100.00
2023-01-22T19:34:09.999Z,100.00
2023-01-22T19:36:39.286Z,100.00
2023-01-22T19:39:09.594Z,100.00
2023-01-22T19:41:39.451Z,100.00
2023-01-22T19:44:07.746Z,100.00
2023-01-22T19:46:37.969Z,100.00
2023-01-22T19:49:06.447Z,100.00
2023-01-22T19:51:34.679Z,100.00
2023-01-22T19:54:04.762Z,100.00
2023-01-22T19:56:35.063Z,100.00
2023-01-22T19:59:07.696Z,100.00
2023-01-22T20:01:37.850Z,100.00
2023-01-22T20:04:09.047Z,100.00
2023-01-22T20:06:37.448Z,100.00
2023-01-22T20:09:05.809Z,100.00
2023-01-22T20:11:34.378Z,100.00
2023-01-22T20:14:04.524Z,100.00
2023-01-22T20:16:32.733Z,100.00
2023-01-22T20:19:00.938Z,100.00
2023-01-22T20:21:30.044Z,100.00
2023-01-22T20:23:58.239Z,100.00
2023-01-22T20:26:26.482Z,100.00
2023-01-22T20:28:54.690Z,100.00
2023-01-22T20:31:25.390Z,100.00
2023-01-22T20:33:54.881Z,100.00
2023-01-22T20:36:24.672Z,100.00
2023-01-22T20:38:54.494Z,100.00
2023-01-22T20:41:23.830Z,100.00
2023-01-22T20:43:52.293Z,100.00
2023-01-22T20:46:24.451Z,100.00
2023-01-22T20:48:53.556Z,100.00
2023-01-22T20:51:25.578Z,100.00
2023-01-22T20:53:55.440Z,100.00
2023-01-22T20:56:27.405Z,100.00
2023-01-22T20:58:59.845Z,100.00
2023-01-22T21:01:30.292Z,100.00
2023-01-22T21:04:00.043Z,100.00
2023-01-22T21:06:30.001Z,100.00
2023-01-22T21:08:59.058Z,100.00
2023-01-22T21:11:28.553Z,100.00
2023-01-22T21:13:58.248Z,100.00
2023-01-22T21:16:29.682Z,100.00
2023-01-22T21:19:01.473Z,100.00
2023-01-22T21:21:31.162Z,100.00
2023-01-22T21:24:00.106Z,100.00
2023-01-22T21:26:30.512Z,100.00
2023-01-22T21:29:00.366Z,100.00
2023-01-22T21:31:28.974Z,100.00
2023-01-22T21:34:03.515Z,100.00
2023-01-22T21:36:32.903Z,100.00
2023-01-22T21:39:01.740Z,100.00
2023-01-22T21:41:30.076Z,100.00
2023-01-22T21:44:15.537Z,100.00
2023-01-22T21:46:45.709Z,100.00
2023-01-22T21:49:21.023Z,100.00
2023-01-22T21:51:50.641Z,100.00
2023-01-22T21:54:20.953Z,100.00
2023-01-22T21:56:49.195Z,100.00
2023-01-22T21:59:17.884Z,100.00
2023-01-22T22:01:46.722Z,100.00
2023-01-22T22:04:16.268Z,100.00
2023-01-22T22:06:44.456Z,100.00
2023-01-22T22:09:14.874Z,100.00
2023-01-22T22:11:43.302Z,100.00
2023-01-22T22:14:13.465Z,100.00
2023-01-22T22:16:41.655Z,100.00
2023-01-22T22:19:10.289Z,100.00
2023-01-22T22:21:40.584Z,100.00
2023-01-22T22:24:09.905Z,100.00
2023-01-22T22:26:38.536Z,100.00
2023-01-22T22:29:07.888Z,100.00
2023-01-22T22:31:36.816Z,100.00
2023-01-22T22:34:05.558Z,100.00
2023-01-22T22:36:34.679Z,100.00
2023-01-22T22:39:06.622Z,100.00
2023-01-22T22:41:37.142Z,100.00
2023-01-22T22:44:06.553Z,100.00
2023-01-22T22:46:37.113Z,100.00
2023-01-22T22:49:06.053Z,100.00
2023-01-22T22:51:36.378Z,100.00
2023-01-22T22:54:08.180Z,100.00
2023-01-22T22:56:36.561Z,100.00
2023-01-22T22:59:05.507Z,100.00
2023-01-22T23:01:36.785Z,100.00
2023-01-22T23:04:05.886Z,100.00
2023-01-22T23:06:37.728Z,100.00
2023-01-22T23:09:07.883Z,100.00
2023-01-22T23:11:36.512Z,100.00
2023-01-22T23:14:05.589Z,100.00
2023-01-22T23:16:36.535Z,100.00
2023-01-22T23:19:07.779Z,100.00
2023-01-22T23:21:36.566Z,100.00
2023-01-22T23:24:06.738Z,100.00
2023-01-22T23:26:35.299Z,100.00
2023-01-22T23:29:05.980Z,100.00
2023-01-22T23:31:36.302Z,100.00
2023-01-22T23:34:05.477Z,100.00
2023-01-22T23:36:35.151Z,100.00
2023-01-22T23:39:04.097Z,100.00
2023-01-22T23:41:33.842Z,100.00
2023-01-22T23:44:02.169Z,100.00
2023-01-22T23:46:31.916Z,100.00
2023-01-22T23:49:00.625Z,100.00
2023-01-22T23:51:29.407Z,100.00
2023-01-22T23:53:57.975Z,100.00
2023-01-22T23:56:30.239Z,100.00
2023-01-22T23:59:00.304Z,100.00
